ウィニペグ国際空港の過去48時間の天気

ウィニペグ国際空港 (Winnipeg Int. Airportman.)

現在時刻: 12/3 22:27 CST (12/4 04:27 UTC) 以下の時間は現地時間です。

過去48時間のMETAR気象情報
時間 風向 風速(m/s) 視程 気温(℃) 湿度(%) 気圧(hPa) 天気現象
3 22:00 西北西 4 10km以上 -7 93 1014
3 21:00 西 5 10km以上 -5 86 1013.8
3 20:00 西 4 10km以上 -4 80 1014.2
3 19:00 西 3 10km以上 -2 80 1014.1
3 18:00 西 3 10km以上 -2 74 1014.2
3 17:00 西北西 2 10km以上 -1 74 1014.3
3 16:00 西北西 5 10km以上 1 64 1013.9
3 15:00 北西 6 10km以上 3 60 1014.2
3 14:00 西北西 6 10km以上 3 60 1014
3 13:00 西北西 5 10km以上 2 60 1014.9
3 12:00 西北西 5 10km以上 1 64 1015.6
3 11:00 北西 5 10km以上 0 69 1016
3 10:00 北西 5 10km以上 -3 80 1016.4
3 09:00 西北西 4 10km以上 -5 79 1016.5
3 08:00 西 2 10km以上 -7 86 1016.4
3 07:00 西北西 2 10km以上 -7 86 1017.2
3 06:00 西南西 4 10km以上 -6 79 1017
3 05:00 西南西 5 10km以上 -5 79 1017.1
3 04:00 西 4 10km以上 -5 79 1017.5
3 03:00 西 5 10km以上 -5 74 1018.1
3 02:00 西 5 10km以上 -5 74 1018.9
3 01:00 西 5 10km以上 -5 79 1019.8
3 00:00 西 5 10km以上 -5 74 1020.6
2 23:00 西 5 10km以上 -4 74 1020.7
2 22:00 西 5 10km以上 -3 68 1021
2 21:00 西 4 10km以上 -3 74 1021.9
2 20:00 西南西 5 10km以上 -2 69 1022.5
2 19:00 西 5 10km以上 -1 64 1023.1
2 18:00 西 5 10km以上 -1 69 1023.6
2 17:00 西 5 10km以上 0 69 1024.8
2 16:00 西 4 10km以上 2 64 1025
2 15:00 西 4 10km以上 4 56 1025.6
2 14:00 西 6 10km以上 4 60 1026.1
2 13:00 西 7 10km以上 4 60 1026.9
2 12:00 西 6 10km以上 3 65 1027.8
2 11:00 西 4 10km以上 3 70 1028.4
2 10:00 西 3 10km以上 1 80 1028.5
2 09:00 西 4 10km以上 1 80 1028.7
2 08:00 西 4 10km以上 0 86 1028.6
2 07:00 西 4 10km以上 0 86 1028.5
2 06:00 西 4 10km以上 -1 86 1028.4
2 05:00 西 4 10km以上 -2 93 1028.1
2 04:00 西南西 4 10km以上 -2 86 1027.7
2 03:00 西南西 3 10km以上 -3 86 1027.8
2 02:00 西 3 10km以上 -5 86 1027.5
2 01:00 北西 2 10km以上 -4 93 1027.1
2 00:28 4 10km以上 -3 80 1026.5
2 00:00 5 10km以上 -6 93 1026.4
1 23:00 北北西 4 10km以上 -7 86 1025.6
CYWG 040400Z 30007KT 15SM SKC M07/M08 A2989 RMK SLP140
CYWG 040300Z 28009KT 15SM SKC M05/M07 A2989 RMK SLP138
CYWG 040200Z 27008KT 15SM SKC M04/M07 A2990 RMK SLP142
CYWG 040100Z 27006KT 15SM SKC M02/M05 A2990 RMK SLP141
CYWG 040000Z 27005KT 15SM SKC M02/M06 A2990 RMK SLP142
CYWG 032300Z 30004KT 15SM FEW250 M01/M05 A2991 RMK CI1 CI TR SLP143
CYWG 032200Z 29009KT 15SM FEW250 01/M05 A2989 RMK CI1 CI TR SLP139
CYWG 032100Z 31012G17KT 15SM FEW250 03/M04 A2991 RMK CI1 CONTRAILS SLP142
CYWG 032000Z 29011KT 15SM BKN250 03/M04 A2990 RMK CI6 SLP140
CYWG 031900Z 29010KT 15SM BKN230 02/M05 A2993 RMK CI6 SLP149
CYWG 031800Z 30009KT 15SM BKN230 01/M05 A2995 RMK CI5 SLP156
CYWG 031700Z 32009KT 15SM BKN230 M00/M05 A2996 RMK CI5 SLP160
CYWG 031600Z 31009KT 15SM BKN230 M03/M06 A2997 RMK CI5 SLP164
CYWG 031500Z 29007KT 15SM FEW120 BKN230 M05/M08 A2997 RMK AC1CI4 SLP165
CYWG 031400Z 27004KT 15SM FEW120 BKN230 M07/M09 A2996 RMK AC1CI4 SLP164
CYWG 031300Z 29004KT 15SM SKC M07/M09 A2999 RMK SLP172
CYWG 031200Z 25007KT 15SM SKC M06/M09 A2999 RMK SLP170
CYWG 031100Z 25010KT 15SM SKC M05/M08 A2999 RMK SLP171
CYWG 031000Z 26008KT 15SM SKC M05/M08 A3000 RMK SLP175
CYWG 030900Z 27010KT 15SM SKC M05/M09 A3002 RMK SLP181
CYWG 030800Z 26009KT 15SM SKC M05/M09 A3005 RMK SLP189
CYWG 030700Z 28009KT 15SM SKC M05/M08 A3007 RMK SLP198
CYWG 030600Z 28009KT 15SM SKC M05/M09 A3009 RMK SLP206
CYWG 030500Z 27009KT 15SM SKC M04/M08 A3010 RMK SLP207
CYWG 030400Z 26009KT 15SM SKC M03/M08 A3011 RMK SLP210
CYWG 030300Z 26008KT 15SM FEW250 M03/M07 A3013 RMK CI2 SLP219
CYWG 030200Z 25009KT 15SM SKC M02/M07 A3015 RMK SLP225
CYWG 030100Z 27010KT 15SM SCT250 M01/M07 A3017 RMK CI3 SLP231
CYWG 030000Z 26010KT 15SM FEW250 M01/M06 A3018 RMK CI2 SLP236
CYWG 022300Z 27010KT 15SM SCT250 M00/M05 A3022 RMK CI3 SLP248
CYWG 022200Z 26007KT 15SM FEW250 02/M04 A3023 RMK CI1 SLP250
CYWG 022100Z 28008KT 15SM FEW250 04/M04 A3024 RMK CI1 SLP256
CYWG 022000Z 28011KT 15SM FEW250 04/M03 A3026 RMK CI1 SLP261
CYWG 021900Z 28013KT 15SM FEW250 04/M03 A3028 RMK CI1 SLP269
CYWG 021800Z 28011G16KT 15SM FEW027 FEW250 03/M03 A3031 RMK SC1CI1 SC TR SLP278
CYWG 021700Z 26008KT 15SM FEW027 FEW250 03/M02 A3032 RMK SC1CI1 SLP284
CYWG 021600Z 28006KT 15SM BKN027 01/M02 A3032 RMK SC7 SLP285
CYWG 021500Z 28008KT 15SM OVC027 01/M02 A3033 RMK SC8 SLP287
CYWG 021400Z 27008KT 15SM OVC027 00/M02 A3032 RMK SC8 SLP286
CYWG 021300Z 26008KT 15SM OVC027 M00/M02 A3032 RMK SC8 SLP285
CYWG 021200Z 27008KT 15SM OVC026 M01/M03 A3032 RMK SC8 SLP284
CYWG 021100Z 26007KT 15SM OVC028 M02/M03 A3031 RMK SC8 SLP281
CYWG 021000Z 25008KT 15SM OVC026 M02/M04 A3030 RMK SC8 SLP277
CYWG 020900Z 25006KT 15SM SCT017 OVC026 M03/M05 A3031 RMK SC3SC5 SLP278
CYWG 020800Z 27006KT 15SM BKN019 M05/M07 A3029 RMK SC6 SLP275
CYWG 020700Z 31004KT 15SM OVC015 M04/M05 A3028 RMK SC8 SLP271
CYWG 020628Z 01007KT 15SM BKN013 M03/M06 A3027 RMK SC7 SLP265
CYWG 020600Z 35010KT 15SM SCT015 M06/M07 A3026 RMK SC3 SLP264
CYWG 020500Z 33007KT 15SM SKC M07/M09 A3023 RMK SLP256